Kezdőlap
METAR-TAF:

METAR-TAF

Repülőterek :

Lahr, Németország

földrajzi szélesség: 48-22-09N, földrajzi hosszúság: 007-49-40E, magasság: 156 m

Jelenlegi meteorológiai megfigyelések

A jelentés 10 perccel ezelõtt készült, 15:20 UTC
Keleti szél 3 kt
Hőmérséklet 10°C
Páratartalom 87%
Légköri nyomás 1009 hPa
Látótávolság 10 km, vagy több
Kevés felhő 2600 lábon
Szakadozott felhőzet 4100 lábon
Borult 5300 lábon
enyhe esõ

METAR: EDTL 151520Z 10003KT 9999 -RA FEW026 BKN041 OVC053 10/08 Q1009

Idő: 16:30 (15:30 UTC)

Előrejelzés

A jelentés 1 órával és 0 perccel ezelõtt készült, 14:30 UTC
Az előrejelzés 15-én 15 óra UTC és 15-én 24 óra UTC között érvényes
Délnyugati szél 6 kt
Látótávolság 10 km, vagy több
Szakadozott felhőzet 3000 lábon
15-én 15 óra UTC és 15-én 24 óra UTC között ideiglenes
esõ

TAF: EDTL 151430Z 1515/1524 22006KT 9999 BKN030 TEMPO 1515/1524 RA

Meteorológiai megfigyelések és előrejelzések több, mint 4000 repülőtéren (METAR és TAF jelentéseket).

A térképen piros és sárga pontok jelzik az elérhető meteorológiai állomásokat.

Mozgassa az egeret a pont fölött, hogy megjelenjen az állomás neve.

Azután kattintson az időjárási megfigyelések és előrejelzések megtekintéséhez.

A térkép megváltoztatása: kattintson a fekete keresztel jelölt zöld gombra ráközelítéshez, a vonallal jelölt zöld gombra távolításhoz, vagy a zöld nyilakra a szomszédos térképek eléréséhez.


METAR-TAF: